Time;durP1;ratioP1;P1;durP2;ratioP2;P2;SDS_P1;SDS_P2;PMS_P1;PMS_P2;Temp;Humidity;BMP_temperature;BMP_pressure;BME280_temperature;BME280_humidity;BME280_pressure;Samples;Min_cycle;Max_cycle;Signal;HPM_P1;HPM_P2
2021/12/03 00:00:52;;;;;;;5.03;4.10;;;2.10;99.90;;;;;;4972610;28;20450;-75
2021/12/03 00:03:19;;;;;;;6.90;4.50;;;2.00;99.90;;;;;;4971507;28;20029;-76
2021/12/03 00:05:45;;;;;;;5.68;4.13;;;2.00;99.90;;;;;;4970696;28;20039;-76
2021/12/03 00:08:11;;;;;;;6.35;4.30;;;2.00;99.90;;;;;;4972271;28;20026;-75
2021/12/03 00:10:38;;;;;;;6.57;4.40;;;2.00;99.90;;;;;;4970294;28;20430;-76
2021/12/03 00:13:06;;;;;;;5.20;4.10;;;2.00;99.90;;;;;;4971044;28;20026;-78
2021/12/03 00:15:33;;;;;;;4.65;3.97;;;2.00;99.90;;;;;;4970746;28;20061;-74
2021/12/03 00:18:00;;;;;;;6.32;4.20;;;2.00;99.90;;;;;;4970240;28;20070;-75
2021/12/03 00:20:26;;;;;;;7.75;4.32;;;2.00;99.90;;;;;;4971976;28;20023;-74
2021/12/03 00:22:56;;;;;;;5.45;4.10;;;2.00;99.90;;;;;;4971255;28;20023;-75
2021/12/03 00:25:23;;;;;;;6.85;4.85;;;2.00;99.90;;;;;;4975178;28;20085;-74
2021/12/03 00:27:49;;;;;;;5.20;4.20;;;2.00;99.90;;;;;;4975870;28;20027;-74
2021/12/03 00:30:17;;;;;;;5.72;4.38;;;2.00;99.90;;;;;;4974283;28;20037;-75
2021/12/03 00:32:44;;;;;;;6.25;4.82;;;2.00;99.90;;;;;;4973695;28;20019;-74
2021/12/03 00:35:10;;;;;;;6.43;4.35;;;2.00;99.90;;;;;;4974189;28;20041;-75
2021/12/03 00:37:38;;;;;;;8.18;5.97;;;2.00;99.90;;;;;;4974673;28;20117;-74
2021/12/03 00:40:06;;;;;;;6.72;4.90;;;2.00;99.90;;;;;;4974357;28;20039;-74
2021/12/03 00:42:33;;;;;;;7.15;5.28;;;2.00;99.90;;;;;;4974871;28;20387;-75
2021/12/03 00:44:58;;;;;;;7.75;4.97;;;2.00;99.90;;;;;;4973488;28;20034;-74
2021/12/03 00:47:25;;;;;;;8.13;4.63;;;2.00;99.90;;;;;;4973966;28;20018;-74
2021/12/03 00:49:51;;;;;;;6.55;5.22;;;2.00;99.90;;;;;;4975474;28;20019;-74
2021/12/03 00:52:17;;;;;;;5.82;5.03;;;2.00;99.90;;;;;;4973497;28;20055;-74
2021/12/03 00:54:43;;;;;;;7.50;5.10;;;2.00;99.90;;;;;;4973847;28;20050;-74
2021/12/03 00:57:09;;;;;;;6.55;4.80;;;2.00;99.90;;;;;;4975394;28;20057;-74
2021/12/03 00:59:35;;;;;;;5.93;4.70;;;2.00;99.90;;;;;;4973128;28;20490;-74
2021/12/03 01:02:02;;;;;;;5.28;4.13;;;2.00;99.90;;;;;;4975250;28;20383;-74
2021/12/03 01:04:27;;;;;;;5.68;4.45;;;2.00;99.90;;;;;;4975753;28;20384;-77
2021/12/03 01:06:53;;;;;;;8.85;5.00;;;1.90;99.90;;;;;;4973087;28;20062;-74
2021/12/03 01:09:21;;;;;;;9.43;5.57;;;1.90;99.90;;;;;;4973447;28;20482;-74
2021/12/03 01:11:46;;;;;;;4.53;4.00;;;1.90;99.90;;;;;;4975115;28;20379;-74
2021/12/03 01:14:12;;;;;;;8.23;4.80;;;1.90;99.90;;;;;;4973867;28;20165;-74
2021/12/03 01:16:38;;;;;;;5.88;4.85;;;1.90;99.90;;;;;;4973566;28;20026;-74
2021/12/03 01:19:03;;;;;;;5.85;4.38;;;1.90;99.90;;;;;;4974538;28;20074;-74
2021/12/03 01:21:29;;;;;;;6.80;4.60;;;1.90;99.90;;;;;;4972362;28;20491;-74
2021/12/03 01:23:56;;;;;;;5.18;4.40;;;1.90;99.90;;;;;;4973503;28;20018;-74
2021/12/03 01:26:23;;;;;;;5.30;4.80;;;1.90;99.90;;;;;;4973066;28;20458;-74
2021/12/03 01:28:49;;;;;;;5.28;4.15;;;1.90;99.90;;;;;;4974024;28;20023;-77
2021/12/03 01:31:15;;;;;;;5.68;4.70;;;1.90;99.90;;;;;;4973201;28;20054;-75
2021/12/03 01:33:42;;;;;;;4.43;3.92;;;1.90;99.90;;;;;;4972805;28;20029;-75
2021/12/03 01:36:08;;;;;;;4.57;4.00;;;1.90;99.90;;;;;;4972832;28;20078;-75
2021/12/03 01:38:34;;;;;;;4.53;4.13;;;1.90;99.90;;;;;;4973155;28;20046;-78
2021/12/03 01:40:59;;;;;;;5.53;4.25;;;2.00;99.90;;;;;;4972347;28;20023;-75
2021/12/03 01:43:25;;;;;;;5.60;4.20;;;2.00;99.90;;;;;;4972587;28;20042;-74
2021/12/03 01:46:04;;;;;;;5.32;4.28;;;2.00;99.90;;;;;;4973112;28;20034;-75
2021/12/03 01:48:31;;;;;;;5.15;4.03;;;2.00;99.90;;;;;;4971768;28;20027;-74
2021/12/03 01:50:57;;;;;;;6.05;4.15;;;2.00;99.90;;;;;;4972954;28;20082;-75
2021/12/03 01:53:27;;;;;;;4.68;4.00;;;2.00;99.90;;;;;;4972555;28;20026;-74
2021/12/03 01:55:56;;;;;;;4.80;4.32;;;2.00;99.90;;;;;;4973380;28;20109;-74
2021/12/03 01:58:22;;;;;;;6.55;4.70;;;2.00;99.90;;;;;;4973974;28;20388;-74
2021/12/03 02:00:53;;;;;;;7.25;4.43;;;2.10;99.90;;;;;;4972627;28;20031;-74
2021/12/03 02:03:23;;;;;;;5.53;4.90;;;2.10;99.90;;;;;;4972056;28;20085;-74
2021/12/03 02:05:50;;;;;;;5.07;4.57;;;2.10;99.90;;;;;;4974170;28;20395;-74
2021/12/03 02:08:16;;;;;;;6.40;4.65;;;2.10;99.90;;;;;;4972467;28;20027;-78
2021/12/03 02:10:42;;;;;;;6.45;4.50;;;2.10;99.90;;;;;;4971927;28;20030;-74
2021/12/03 02:13:11;;;;;;;7.00;5.32;;;2.10;99.90;;;;;;4973987;28;20031;-78
2021/12/03 02:15:37;;;;;;;7.75;5.82;;;2.20;99.90;;;;;;4973557;28;20085;-74
2021/12/03 02:18:03;;;;;;;5.65;4.20;;;2.20;99.90;;;;;;4972954;28;20023;-74
2021/12/03 02:20:29;;;;;;;5.20;4.20;;;2.20;99.90;;;;;;4973515;28;20031;-73
2021/12/03 02:22:55;;;;;;;5.30;4.03;;;2.20;99.90;;;;;;4973423;28;20029;-74
2021/12/03 02:25:23;;;;;;;5.10;4.45;;;2.20;99.90;;;;;;4971764;28;20419;-74
2021/12/03 02:27:52;;;;;;;6.35;4.57;;;2.30;99.90;;;;;;4972156;28;20416;-74
2021/12/03 02:30:18;;;;;;;4.57;4.18;;;2.30;99.90;;;;;;4971288;28;20439;-75
2021/12/03 02:32:44;;;;;;;7.22;4.55;;;2.30;99.90;;;;;;4973553;28;20035;-74
2021/12/03 02:35:10;;;;;;;5.80;5.03;;;2.40;99.90;;;;;;4973119;28;20077;-74
2021/12/03 02:37:36;;;;;;;5.85;5.25;;;2.40;99.90;;;;;;4971200;28;20030;-75
2021/12/03 02:40:04;;;;;;;7.10;5.90;;;2.40;99.90;;;;;;4973348;28;20554;-75
2021/12/03 02:42:29;;;;;;;6.18;4.95;;;2.40;99.90;;;;;;4971657;28;20539;-74
2021/12/03 02:44:55;;;;;;;8.23;5.55;;;2.40;99.90;;;;;;4971177;28;20390;-75
2021/12/03 02:47:20;;;;;;;5.63;4.63;;;2.40;99.90;;;;;;4972238;28;20030;-73
2021/12/03 02:49:47;;;;;;;5.68;5.00;;;2.40;99.90;;;;;;4973549;28;20062;-74
2021/12/03 02:52:13;;;;;;;6.47;5.03;;;2.50;99.90;;;;;;4973434;28;20027;-73
2021/12/03 02:54:39;;;;;;;7.10;5.53;;;2.40;99.90;;;;;;4973002;28;20034;-75
2021/12/03 02:57:05;;;;;;;7.32;5.43;;;2.40;99.90;;;;;;4972966;28;20450;-74
2021/12/03 02:59:32;;;;;;;6.05;5.18;;;2.50;99.90;;;;;;4970667;28;20023;-74
2021/12/03 03:01:59;;;;;;;6.72;5.97;;;2.50;99.90;;;;;;4973024;28;20111;-73
2021/12/03 03:04:26;;;;;;;5.93;5.30;;;2.40;99.90;;;;;;4971471;28;20031;-74
2021/12/03 03:06:53;;;;;;;6.40;4.90;;;2.40;99.90;;;;;;4971395;28;20049;-73
2021/12/03 03:09:19;;;;;;;5.80;5.20;;;2.40;99.90;;;;;;4971377;28;20121;-74
2021/12/03 03:11:45;;;;;;;6.10;5.50;;;2.40;99.90;;;;;;4972603;28;20023;-74
2021/12/03 03:14:11;;;;;;;7.72;6.03;;;2.40;99.90;;;;;;4970862;28;20023;-73
2021/12/03 03:16:37;;;;;;;6.35;5.18;;;2.40;99.90;;;;;;4971085;28;20368;-74
2021/12/03 03:19:14;;;;;;;8.13;5.80;;;2.40;99.90;;;;;;4971723;28;20357;-73
2021/12/03 03:21:40;;;;;;;7.13;6.03;;;2.50;99.90;;;;;;4972825;28;20031;-76
2021/12/03 03:24:08;;;;;;;7.05;5.90;;;2.50;99.90;;;;;;4971601;28;20037;-73
2021/12/03 03:26:36;;;;;;;7.63;6.18;;;2.50;99.90;;;;;;4970258;28;20110;-73
2021/12/03 03:29:03;;;;;;;9.85;6.93;;;2.50;99.90;;;;;;4971838;28;20019;-74
2021/12/03 03:31:29;;;;;;;7.57;5.78;;;2.40;99.90;;;;;;4972464;28;20046;-73
2021/12/03 03:33:55;;;;;;;10.60;6.22;;;2.50;99.90;;;;;;4970603;28;20050;-73
2021/12/03 03:36:21;;;;;;;7.47;6.68;;;2.50;99.90;;;;;;4973960;28;20043;-73
2021/12/03 03:38:46;;;;;;;6.40;5.80;;;2.50;99.90;;;;;;4991138;28;20025;-74
2021/12/03 03:41:12;;;;;;;8.38;6.15;;;2.50;99.90;;;;;;4981830;28;20038;-73
2021/12/03 03:43:37;;;;;;;7.80;6.78;;;2.50;99.90;;;;;;4970876;28;20027;-73
2021/12/03 03:46:03;;;;;;;7.80;7.00;;;2.60;99.90;;;;;;4971019;28;20038;-74
2021/12/03 03:48:30;;;;;;;9.18;6.65;;;2.60;99.90;;;;;;4970793;28;20882;-73
2021/12/03 03:50:56;;;;;;;7.63;6.65;;;2.60;99.90;;;;;;4955370;28;20058;-74
2021/12/03 03:53:22;;;;;;;8.50;6.60;;;2.70;99.90;;;;;;4979710;28;20085;-73
2021/12/03 03:55:48;;;;;;;7.07;6.40;;;2.70;99.90;;;;;;4989791;28;20075;-74
2021/12/03 03:58:13;;;;;;;9.00;7.60;;;2.70;99.90;;;;;;4993788;28;20034;-74
2021/12/03 04:00:42;;;;;;;11.45;8.38;;;2.70;99.90;;;;;;4994001;28;20026;-74
2021/12/03 04:03:08;;;;;;;11.13;8.60;;;2.80;99.90;;;;;;4995036;28;20026;-73
2021/12/03 04:05:34;;;;;;;11.05;8.85;;;2.70;99.90;;;;;;4993698;28;20042;-73
2021/12/03 04:08:00;;;;;;;10.02;8.27;;;2.80;99.90;;;;;;4995563;28;20129;-73
2021/12/03 04:10:26;;;;;;;10.50;9.40;;;2.80;99.90;;;;;;4994611;28;20117;-73
2021/12/03 04:12:52;;;;;;;11.25;9.50;;;2.80;99.90;;;;;;4994276;28;20077;-77
2021/12/03 04:15:18;;;;;;;10.38;9.30;;;2.90;99.90;;;;;;4994180;28;20096;-74
2021/12/03 04:17:45;;;;;;;12.80;10.80;;;2.90;99.90;;;;;;4992079;28;20383;-74
2021/12/03 04:20:12;;;;;;;10.85;9.73;;;2.90;99.90;;;;;;4975931;28;20034;-75
2021/12/03 04:22:38;;;;;;;12.98;10.82;;;2.90;99.90;;;;;;4973562;28;20026;-75
2021/12/03 04:25:06;;;;;;;12.48;10.55;;;2.90;99.90;;;;;;4974414;28;20034;-74
2021/12/03 04:27:32;;;;;;;13.45;10.77;;;2.90;99.90;;;;;;4974301;28;20027;-74
2021/12/03 04:29:58;;;;;;;14.75;11.27;;;2.90;99.90;;;;;;4973431;28;20045;-75
2021/12/03 04:32:25;;;;;;;15.82;12.52;;;3.00;99.90;;;;;;4974277;28;20027;-75
2021/12/03 04:34:52;;;;;;;12.82;11.52;;;3.00;99.90;;;;;;4974794;28;20356;-75
2021/12/03 04:37:17;;;;;;;13.70;12.30;;;3.00;99.90;;;;;;4973122;28;20050;-74
2021/12/03 04:39:43;;;;;;;12.80;11.50;;;3.00;99.90;;;;;;4973787;28;20026;-74
2021/12/03 04:42:09;;;;;;;14.60;12.27;;;3.00;99.90;;;;;;4974739;28;20023;-74
2021/12/03 04:44:35;;;;;;;15.68;11.75;;;3.10;99.90;;;;;;4974403;28;20101;-74
2021/12/03 04:47:01;;;;;;;16.92;13.18;;;3.10;99.90;;;;;;4975001;28;20471;-74
2021/12/03 04:49:27;;;;;;;18.83;14.30;;;3.10;99.90;;;;;;4975011;28;20073;-74
2021/12/03 04:51:54;;;;;;;18.85;15.43;;;3.10;99.90;;;;;;4984439;28;20108;-74
2021/12/03 04:54:20;;;;;;;19.60;14.65;;;3.10;99.90;;;;;;4975221;28;20027;-73
2021/12/03 04:56:47;;;;;;;19.10;15.35;;;3.10;99.90;;;;;;4974880;28;20034;-73
2021/12/03 04:59:12;;;;;;;22.23;16.50;;;3.10;99.90;;;;;;4974135;28;20534;-72
2021/12/03 05:01:39;;;;;;;24.77;18.15;;;3.20;99.90;;;;;;4974694;28;20106;-74
2021/12/03 05:04:05;;;;;;;24.17;18.55;;;3.10;99.90;;;;;;4974699;28;20067;-72
2021/12/03 05:06:52;;;;;;;24.30;18.15;;;3.10;99.90;;;;;;4972481;28;20439;-73
2021/12/03 05:09:16;;;;;;;25.40;18.48;;;3.10;99.90;;;;;;4984591;28;20101;-72
2021/12/03 05:11:42;;;;;;;26.02;19.52;;;3.10;99.90;;;;;;4992723;28;20128;-73
2021/12/03 05:14:07;;;;;;;38.92;22.75;;;3.20;99.90;;;;;;4974670;28;20025;-73
2021/12/03 05:16:33;;;;;;;33.67;22.13;;;3.20;99.90;;;;;;4974409;28;20549;-73
2021/12/03 05:18:58;;;;;;;31.05;21.95;;;3.20;99.90;;;;;;4974293;28;20026;-72
2021/12/03 05:21:24;;;;;;;32.42;21.77;;;3.20;99.90;;;;;;4974614;28;20030;-74
2021/12/03 05:23:50;;;;;;;32.38;23.33;;;3.20;99.90;;;;;;4974714;28;20023;-73
2021/12/03 05:26:15;;;;;;;35.88;24.42;;;3.20;99.90;;;;;;4972523;28;20045;-73
2021/12/03 05:28:42;;;;;;;39.13;24.95;;;3.30;99.90;;;;;;4973414;28;20034;-75
2021/12/03 05:31:08;;;;;;;32.70;22.20;;;3.30;99.90;;;;;;4973286;28;20027;-73
2021/12/03 05:33:34;;;;;;;37.97;24.45;;;3.30;99.90;;;;;;4973861;28;20102;-74
2021/12/03 05:36:00;;;;;;;35.25;23.60;;;3.30;99.90;;;;;;4973023;28;20105;-73
2021/12/03 05:38:25;;;;;;;42.95;27.27;;;3.30;99.90;;;;;;4972940;28;20035;-77
2021/12/03 05:40:51;;;;;;;42.65;28.00;;;3.30;99.90;;;;;;4972880;28;20019;-74
2021/12/03 05:43:17;;;;;;;41.75;26.80;;;3.30;99.90;;;;;;4971890;28;20080;-78
2021/12/03 05:45:44;;;;;;;42.10;26.67;;;3.30;99.90;;;;;;4972606;28;20423;-74
2021/12/03 05:48:11;;;;;;;40.28;26.10;;;3.30;99.90;;;;;;4974008;28;20114;-75
2021/12/03 05:50:37;;;;;;;41.88;26.10;;;3.40;99.90;;;;;;4972847;28;20423;-75
2021/12/03 05:53:03;;;;;;;38.53;26.55;;;3.40;99.90;;;;;;4972358;28;20077;-74
2021/12/03 05:55:28;;;;;;;43.20;27.60;;;3.40;99.90;;;;;;4959634;28;20054;-74
2021/12/03 05:57:54;;;;;;;41.53;27.58;;;3.40;99.90;;;;;;4954622;29;20479;-72
2021/12/03 06:00:28;;;;;;;42.50;28.33;;;3.40;99.90;;;;;;4954694;29;20019;-73
2021/12/03 06:02:54;;;;;;;40.75;26.65;;;3.40;99.90;;;;;;4972763;28;20027;-73
2021/12/03 06:05:24;;;;;;;40.72;28.70;;;3.40;99.90;;;;;;4973731;28;20447;-75
2021/12/03 06:07:50;;;;;;;41.67;29.02;;;3.50;99.90;;;;;;4973981;28;20019;-73
2021/12/03 06:10:15;;;;;;;42.15;29.42;;;3.50;99.90;;;;;;4973137;28;20042;-74
2021/12/03 06:12:41;;;;;;;47.28;30.92;;;3.50;99.90;;;;;;4971671;28;20035;-73
2021/12/03 06:15:07;;;;;;;46.45;31.23;;;3.50;99.90;;;;;;4972000;28;20105;-73
2021/12/03 06:17:33;;;;;;;42.80;30.42;;;3.50;99.90;;;;;;4974219;28;20740;-76
2021/12/03 06:19:59;;;;;;;39.90;27.50;;;3.50;99.90;;;;;;4954293;28;20032;-78
2021/12/03 06:22:24;;;;;;;41.30;29.17;;;3.50;99.90;;;;;;4972883;28;20031;-77
2021/12/03 06:24:50;;;;;;;46.85;31.33;;;3.50;99.90;;;;;;4972324;28;20049;-78
2021/12/03 06:27:16;;;;;;;44.33;29.77;;;3.60;99.90;;;;;;4971939;28;20026;-76
2021/12/03 06:29:41;;;;;;;46.75;31.25;;;3.60;99.90;;;;;;4971731;28;20129;-79
2021/12/03 06:32:09;;;;;;;48.42;30.13;;;3.60;99.90;;;;;;4966502;28;20020;-77
2021/12/03 06:34:36;;;;;;;46.13;30.00;;;3.60;99.90;;;;;;4971300;28;20053;-77
2021/12/03 06:37:02;;;;;;;46.90;29.30;;;3.60;99.90;;;;;;4971234;28;20093;-78
2021/12/03 06:39:27;;;;;;;48.17;32.15;;;3.60;99.90;;;;;;4971454;28;20020;-78
2021/12/03 06:41:53;;;;;;;44.35;30.25;;;3.60;99.90;;;;;;4972303;28;20420;-79
2021/12/03 06:44:18;;;;;;;45.30;29.77;;;3.60;99.90;;;;;;4971234;28;20054;-80
2021/12/03 06:46:44;;;;;;;46.30;30.05;;;3.60;99.90;;;;;;4971503;28;20035;-79
2021/12/03 06:49:10;;;;;;;42.35;28.45;;;3.60;99.90;;;;;;4971827;28;20046;-79
2021/12/03 06:51:42;;;;;;;43.72;28.85;;;3.60;99.90;;;;;;4971255;28;20081;-80
2021/12/03 06:54:09;;;;;;;44.72;29.38;;;3.60;99.90;;;;;;4971995;28;20050;-80
2021/12/03 06:56:47;;;;;;;50.25;30.25;;;3.60;99.90;;;;;;4971802;28;20026;-81
2021/12/03 06:59:17;;;;;;;40.83;26.42;;;3.60;99.90;;;;;;4970803;28;20030;-76
2021/12/03 07:01:43;;;;;;;37.83;26.08;;;3.60;99.90;;;;;;4967788;28;20067;-76
2021/12/03 07:04:09;;;;;;;45.65;27.65;;;3.60;99.90;;;;;;4970449;28;20378;-74
2021/12/03 07:06:35;;;;;;;42.63;29.25;;;3.70;99.90;;;;;;4970866;28;20460;-73
2021/12/03 07:09:00;;;;;;;41.80;26.63;;;3.70;99.90;;;;;;4971951;28;20057;-73
2021/12/03 07:11:26;;;;;;;42.53;24.65;;;3.60;99.90;;;;;;4969828;28;20077;-74
2021/12/03 07:13:51;;;;;;;40.97;26.55;;;3.70;99.90;;;;;;4971499;28;20375;-74
2021/12/03 07:16:19;;;;;;;36.83;23.48;;;3.70;99.90;;;;;;4972539;28;20399;-77
2021/12/03 07:18:45;;;;;;;31.38;23.75;;;3.60;99.90;;;;;;4972973;28;20031;-74
2021/12/03 07:21:11;;;;;;;34.75;22.13;;;3.60;99.90;;;;;;4973867;28;20135;-81
2021/12/03 07:23:36;;;;;;;35.67;22.15;;;3.60;99.90;;;;;;4965962;28;20031;-73
2021/12/03 07:26:03;;;;;;;29.42;19.55;;;3.60;99.90;;;;;;4971205;28;20513;-74
2021/12/03 07:28:30;;;;;;;30.15;19.50;;;3.60;99.90;;;;;;4971010;28;20027;-74
2021/12/03 07:30:56;;;;;;;27.48;18.20;;;3.60;99.90;;;;;;4970609;28;20395;-77
2021/12/03 07:33:22;;;;;;;31.40;19.83;;;3.60;99.90;;;;;;4972047;28;20015;-77
2021/12/03 07:35:47;;;;;;;27.42;17.08;;;3.60;99.90;;;;;;4974516;28;20101;-76
2021/12/03 07:38:17;;;;;;;25.65;16.98;;;3.60;99.90;;;;;;4972557;28;20026;-79
2021/12/03 07:40:42;;;;;;;24.48;16.60;;;3.70;99.90;;;;;;4977266;28;20081;-78
2021/12/03 07:43:09;;;;;;;24.48;16.15;;;3.60;99.90;;;;;;4980324;28;20419;-81
2021/12/03 07:45:35;;;;;;;21.05;14.05;;;3.70;99.90;;;;;;4973149;28;20126;-82
2021/12/03 07:48:00;;;;;;;27.13;15.90;;;3.70;99.90;;;;;;4972096;28;20023;-80
2021/12/03 07:50:26;;;;;;;23.75;15.15;;;3.70;99.90;;;;;;4972459;28;20086;-83
2021/12/03 07:52:52;;;;;;;25.65;13.75;;;3.70;99.90;;;;;;4974340;28;20031;-82
2021/12/03 07:55:17;;;;;;;23.25;12.45;;;3.70;99.90;;;;;;4976418;28;20031;-77
2021/12/03 07:57:43;;;;;;;19.85;11.40;;;3.70;99.90;;;;;;4975913;28;20122;-83
2021/12/03 08:00:09;;;;;;;16.88;12.35;;;3.70;99.90;;;;;;4977010;28;20027;-91
2021/12/03 08:02:35;;;;;;;19.00;10.68;;;3.70;99.90;;;;;;4972518;28;20113;-76
2021/12/03 08:05:00;;;;;;;20.95;10.95;;;3.70;99.90;;;;;;4973570;28;20534;-77
2021/12/03 08:07:27;;;;;;;15.32;9.40;;;3.70;99.90;;;;;;4956770;28;20035;-78
2021/12/03 08:09:53;;;;;;;14.10;8.70;;;3.80;99.90;;;;;;4965556;28;20015;-77
2021/12/03 08:12:18;;;;;;;18.45;9.18;;;3.70;99.90;;;;;;4973658;28;20085;-78
2021/12/03 08:14:44;;;;;;;16.58;8.55;;;3.70;99.90;;;;;;4976919;28;20031;-76
2021/12/03 08:17:10;;;;;;;16.42;8.73;;;3.70;99.90;;;;;;4972895;28;20435;-77
2021/12/03 08:19:36;;;;;;;13.70;7.78;;;3.70;99.90;;;;;;4972618;28;20394;-77
2021/12/03 08:22:03;;;;;;;16.85;7.30;;;3.70;99.90;;;;;;4972664;28;20367;-77
2021/12/03 08:24:28;;;;;;;13.63;7.68;;;3.80;99.90;;;;;;4972586;28;20037;-78
2021/12/03 08:26:54;;;;;;;12.23;6.90;;;3.80;99.90;;;;;;4972983;28;20023;-76
2021/12/03 08:29:20;;;;;;;93.47;14.05;;;3.80;99.90;;;;;;4977297;28;20034;-77
2021/12/03 08:31:46;;;;;;;14.82;7.90;;;3.80;99.90;;;;;;4973350;28;20027;-76
2021/12/03 08:34:11;;;;;;;12.77;7.00;;;3.90;99.90;;;;;;4971577;28;20030;-76
2021/12/03 08:36:37;;;;;;;11.70;6.10;;;3.90;99.90;;;;;;4972936;28;20445;-77
2021/12/03 08:39:04;;;;;;;13.43;6.03;;;3.90;99.90;;;;;;4976382;28;20490;-75
2021/12/03 08:41:30;;;;;;;13.48;6.18;;;3.90;99.90;;;;;;4975059;28;20051;-78
2021/12/03 08:43:56;;;;;;;14.73;6.45;;;4.00;99.90;;;;;;4975851;28;20060;-81
2021/12/03 08:46:32;;;;;;;13.68;5.60;;;4.00;99.90;;;;;;4971881;28;20487;-79
2021/12/03 08:49:28;;;;;;;13.45;6.10;;;3.90;99.90;;;;;;4974425;28;20042;-78
2021/12/03 08:57:16;;;;;;;14.90;6.40;;;4.00;99.90;;;;;;4954892;28;20034;-73
2021/12/03 08:59:42;;;;;;;12.38;6.18;;;4.00;99.90;;;;;;4963396;28;20030;-77
2021/12/03 09:02:08;;;;;;;12.60;6.70;;;4.00;99.90;;;;;;4962573;28;20073;-73
2021/12/03 09:04:33;;;;;;;16.55;7.28;;;4.00;99.90;;;;;;4971301;28;20414;-74
2021/12/03 09:07:00;;;;;;;17.00;6.45;;;4.00;99.90;;;;;;4971569;28;20035;-73
2021/12/03 09:09:27;;;;;;;11.35;6.43;;;4.00;99.90;;;;;;4971461;28;20026;-74
2021/12/03 09:11:53;;;;;;;12.60;6.28;;;4.00;99.90;;;;;;4971181;28;20117;-73
2021/12/03 09:14:35;;;;;;;12.57;5.60;;;4.00;99.90;;;;;;4971650;28;20414;-74
2021/12/03 09:19:45;;;;;;;13.07;5.25;;;4.10;99.90;;;;;;4971060;28;19916;-73
2021/12/03 09:22:18;;;;;;;9.52;5.10;;;4.10;99.90;;;;;;4978239;28;20030;-76
2021/12/03 09:24:43;;;;;;;9.88;6.07;;;4.20;99.90;;;;;;4973739;28;20046;-76
2021/12/03 09:27:09;;;;;;;16.25;6.20;;;4.20;99.90;;;;;;4972934;28;20173;-76
2021/12/03 09:29:36;;;;;;;13.55;5.80;;;4.20;99.90;;;;;;4972246;28;20113;-74
2021/12/03 09:32:02;;;;;;;10.93;6.20;;;4.20;99.90;;;;;;4990426;28;20030;-76
2021/12/03 09:34:31;;;;;;;13.95;6.50;;;4.20;99.90;;;;;;4973666;28;20023;-74
2021/12/03 09:36:57;;;;;;;9.93;5.45;;;4.30;99.90;;;;;;4972537;28;20055;-76
2021/12/03 09:39:24;;;;;;;10.45;5.15;;;4.30;99.90;;;;;;4973600;28;20387;-76
2021/12/03 09:41:51;;;;;;;12.73;5.38;;;4.30;99.90;;;;;;4974579;28;20464;-77
2021/12/03 09:44:18;;;;;;;11.85;5.25;;;4.30;99.90;;;;;;4974104;28;20051;-77
2021/12/03 09:46:44;;;;;;;11.32;5.60;;;4.40;99.90;;;;;;4972199;28;20493;-77
2021/12/03 09:49:24;;;;;;;15.55;5.63;;;4.40;99.90;;;;;;4972982;28;20031;-77
2021/12/03 09:54:42;;;;;;;14.02;5.10;;;4.40;99.90;;;;;;4973288;28;20031;-76
2021/12/03 09:57:13;;;;;;;11.23;5.10;;;4.50;99.90;;;;;;4974021;28;20090;-77
2021/12/03 10:00:03;;;;;;;9.73;4.10;;;4.40;99.90;;;;;;4972815;28;20393;-76
2021/12/03 10:08:41;;;;;;;16.00;5.15;;;4.40;99.90;;;;;;4972857;28;20046;-77
2021/12/03 10:16:02;;;;;;;18.73;5.55;;;4.50;99.90;;;;;;4973145;28;20062;-77
2021/12/03 10:18:33;;;;;;;15.18;4.70;;;4.50;99.90;;;;;;4972238;28;20070;-77
2021/12/03 10:21:11;;;;;;;9.20;4.57;;;4.50;99.90;;;;;;4972376;28;20035;-77
2021/12/03 10:24:14;;;;;;;11.50;4.50;;;4.50;99.90;;;;;;4972094;28;20134;-77
2021/12/03 10:29:12;;;;;;;10.85;4.03;;;4.60;99.90;;;;;;4973352;28;20037;-78
2021/12/03 10:35:05;;;;;;;10.68;5.20;;;4.60;99.90;;;;;;4973509;28;20085;-76
2021/12/03 10:49:14;;;;;;;12.00;4.07;;;4.60;99.90;;;;;;4973696;28;20031;-76
2021/12/03 10:51:54;;;;;;;18.48;5.00;;;4.70;99.90;;;;;;4972672;28;20130;-78
2021/12/03 10:57:23;;;;;;;9.55;4.18;;;4.70;99.90;;;;;;4972649;28;20031;-77
2021/12/03 11:08:32;;;;;;;13.10;4.97;;;4.80;99.90;;;;;;4972592;28;20440;-77
2021/12/03 11:25:28;;;;;;;13.25;5.35;;;4.80;99.90;;;;;;4973142;28;20050;-78
2021/12/03 11:26:00;;;;;;;11.25;5.18;;;4.80;99.90;;;;;;4972001;28;20074;-78
2021/12/03 11:36:26;;;;;;;14.65;6.00;;;4.90;99.90;;;;;;4972870;28;20168;-77
2021/12/03 11:42:09;;;;;;;7.80;4.50;;;5.00;99.90;;;;;;4972823;28;20085;-75
2021/12/03 12:15:49;;;;;;;13.57;5.93;;;5.50;99.90;;;;;;4972519;28;20562;-78
2021/12/03 13:04:55;;;;;;;12.50;5.22;;;5.70;99.90;;;;;;4974670;28;20121;-77
2021/12/03 13:07:44;;;;;;;8.77;4.80;;;5.70;99.90;;;;;;4974942;28;20049;-78
2021/12/03 13:15:24;;;;;;;11.68;4.65;;;5.70;99.90;;;;;;4974763;28;20077;-75
2021/12/03 13:18:03;;;;;;;9.52;4.43;;;5.70;99.90;;;;;;4972399;28;20045;-74
2021/12/03 13:30:10;;;;;;;7.43;4.15;;;5.70;99.90;;;;;;4953686;28;20031;-74
2021/12/03 13:37:51;;;;;;;7.22;4.40;;;5.70;99.90;;;;;;4973948;28;20039;-72
2021/12/03 14:43:53;;;;;;;6.03;3.55;;;5.70;99.90;;;;;;4991764;28;20643;-82
2021/12/03 14:46:36;;;;;;;6.90;3.75;;;5.60;99.90;;;;;;4991052;28;20394;-82
2021/12/03 14:49:12;;;;;;;10.45;5.53;;;5.60;99.90;;;;;;4990997;28;20023;-82
2021/12/03 14:57:07;;;;;;;9.20;4.68;;;5.50;99.90;;;;;;4991876;28;20026;-82
2021/12/03 14:59:35;;;;;;;7.43;4.00;;;5.50;99.90;;;;;;4990910;28;20442;-81
2021/12/03 15:05:00;;;;;;;6.20;3.63;;;5.50;99.90;;;;;;4991460;28;20364;-82
2021/12/03 15:07:37;;;;;;;5.80;4.18;;;5.50;99.90;;;;;;4990692;28;20382;-82
2021/12/03 15:10:06;;;;;;;5.63;3.38;;;5.40;99.90;;;;;;4990326;28;20022;-81
2021/12/03 15:23:20;;;;;;;7.65;4.22;;;5.40;99.90;;;;;;4992008;28;20044;-80
2021/12/03 15:25:54;;;;;;;5.28;4.10;;;5.40;99.90;;;;;;4990566;28;20030;-81
2021/12/03 15:31:02;;;;;;;4.80;3.58;;;5.30;99.90;;;;;;4991723;28;20096;-81
2021/12/03 15:36:11;;;;;;;7.07;3.80;;;5.40;99.90;;;;;;4992064;28;20050;-81
2021/12/03 15:52:03;;;;;;;6.63;3.97;;;5.30;99.90;;;;;;4991246;28;20457;-82
2021/12/03 16:08:26;;;;;;;10.02;6.20;;;5.30;99.90;;;;;;4995174;28;20050;-80
2021/12/03 16:53:32;;;;;;;9.93;8.75;;;5.30;99.90;;;;;;4973934;28;20038;-79
2021/12/03 16:56:05;;;;;;;12.02;10.82;;;5.40;99.90;;;;;;4972739;28;20111;-79
2021/12/03 16:58:33;;;;;;;10.05;9.20;;;5.40;99.90;;;;;;4973756;28;20026;-79
2021/12/03 17:01:06;;;;;;;7.47;6.78;;;5.40;99.90;;;;;;4974560;28;20110;-78
2021/12/03 17:03:42;;;;;;;8.68;7.75;;;5.40;99.90;;;;;;4975429;28;20027;-78
2021/12/03 17:30:12;;;;;;;4.72;4.28;;;5.60;99.90;;;;;;4976927;28;20514;-79
2021/12/03 17:54:28;;;;;;;10.85;9.80;;;5.60;99.90;;;;;;4974353;28;20444;-76
2021/12/03 17:57:02;;;;;;;6.97;6.38;;;5.70;99.90;;;;;;4973372;28;20487;-77
2021/12/03 17:59:34;;;;;;;4.22;3.83;;;5.60;99.90;;;;;;4973962;28;20046;-75
2021/12/03 18:02:08;;;;;;;;;;;5.60;99.90;;;;;;4974871;28;20023;-80
2021/12/03 18:48:30;;;;;;;17.77;14.50;;;5.80;99.90;;;;;;4973233;28;20477;-77
2021/12/03 18:54:01;;;;;;;8.50;7.47;;;5.90;99.90;;;;;;4972803;28;20031;-78
2021/12/03 18:56:33;;;;;;;10.43;9.30;;;5.90;99.90;;;;;;4971564;28;20399;-79
2021/12/03 18:59:04;;;;;;;6.88;6.10;;;5.80;99.90;;;;;;4968171;28;20023;-78
2021/12/03 19:01:32;;;;;;;11.93;9.13;;;5.90;99.90;;;;;;4968003;28;20858;-78
2021/12/03 19:06:28;;;;;;;13.98;12.57;;;5.80;99.90;;;;;;4972827;28;20078;-78
2021/12/03 19:08:57;;;;;;;8.85;7.97;;;5.90;99.90;;;;;;4971181;28;20483;-78
2021/12/03 19:11:26;;;;;;;5.72;5.10;;;5.80;99.90;;;;;;4952202;29;20024;-82
2021/12/03 19:13:53;;;;;;;6.78;6.15;;;5.80;99.90;;;;;;4952314;29;20369;-76
2021/12/03 19:16:22;;;;;;;5.88;5.38;;;5.80;99.90;;;;;;4969722;28;20030;-74
2021/12/03 19:18:50;;;;;;;7.65;6.95;;;5.80;99.90;;;;;;4972037;28;20106;-77
2021/12/03 19:21:25;;;;;;;6.43;5.80;;;5.80;99.90;;;;;;4970973;28;20031;-78
2021/12/03 19:23:52;;;;;;;7.43;5.03;;;5.90;99.90;;;;;;4972197;28;20019;-77
2021/12/03 19:26:21;;;;;;;6.03;5.43;;;5.90;99.90;;;;;;4969395;28;20069;-79
2021/12/03 19:28:49;;;;;;;5.38;4.90;;;5.90;99.90;;;;;;4970713;28;20034;-77
2021/12/03 19:31:15;;;;;;;5.88;5.30;;;5.90;99.90;;;;;;4971650;28;20035;-76
2021/12/03 19:33:41;;;;;;;4.90;4.50;;;5.80;99.90;;;;;;4974095;28;20030;-82
2021/12/03 19:36:07;;;;;;;4.90;4.50;;;5.80;99.90;;;;;;4969196;28;20474;-85
2021/12/03 19:38:37;;;;;;;5.22;4.72;;;5.90;99.90;;;;;;4974294;28;20066;-84
2021/12/03 19:41:11;;;;;;;5.25;4.75;;;5.80;99.90;;;;;;4973585;28;20015;-84
2021/12/03 19:43:57;;;;;;;5.43;4.93;;;5.90;99.90;;;;;;4972391;28;20019;-84
2021/12/03 19:46:38;;;;;;;6.65;6.13;;;5.80;99.90;;;;;;4973887;28;20398;-90
2021/12/03 19:49:54;;;;;;;6.40;4.88;;;5.80;99.90;;;;;;4968423;28;20425;-88
2021/12/03 19:51:53;;;;;;;5.25;4.85;;;5.80;99.90;;;;;;4942234;28;20071;-80
2021/12/03 19:54:20;;;;;;;5.05;4.65;;;5.90;99.90;;;;;;4985490;28;20034;-82
2021/12/03 19:56:46;;;;;;;5.90;5.40;;;5.90;99.90;;;;;;4971090;28;20113;-83